sensor_id;sensor_type;location;lat;lon;timestamp;P1;durP1;ratioP1;P2;durP2;ratioP2
73980;SDS011;62348;51.412;5.436;2023-05-19T00:00:33;12.20;;;6.78;;
73980;SDS011;62348;51.412;5.436;2023-05-19T00:03:01;15.50;;;7.60;;
73980;SDS011;62348;51.412;5.436;2023-05-19T00:05:27;9.77;;;6.53;;
73980;SDS011;62348;51.412;5.436;2023-05-19T00:07:55;9.27;;;6.15;;
73980;SDS011;62348;51.412;5.436;2023-05-19T00:10:23;9.93;;;6.63;;
73980;SDS011;62348;51.412;5.436;2023-05-19T00:12:49;14.35;;;7.10;;
73980;SDS011;62348;51.412;5.436;2023-05-19T00:15:15;13.25;;;7.00;;
73980;SDS011;62348;51.412;5.436;2023-05-19T00:17:41;14.35;;;7.30;;
73980;SDS011;62348;51.412;5.436;2023-05-19T00:20:08;11.55;;;7.68;;
73980;SDS011;62348;51.412;5.436;2023-05-19T00:22:36;10.60;;;7.03;;
73980;SDS011;62348;51.412;5.436;2023-05-19T00:25:01;9.93;;;6.75;;
73980;SDS011;62348;51.412;5.436;2023-05-19T00:27:27;13.00;;;6.97;;
73980;SDS011;62348;51.412;5.436;2023-05-19T00:29:53;14.25;;;7.28;;
73980;SDS011;62348;51.412;5.436;2023-05-19T00:32:18;13.57;;;7.85;;
73980;SDS011;62348;51.412;5.436;2023-05-19T00:34:44;12.75;;;7.03;;
73980;SDS011;62348;51.412;5.436;2023-05-19T00:37:11;11.85;;;7.40;;
73980;SDS011;62348;51.412;5.436;2023-05-19T00:39:37;12.73;;;7.28;;
73980;SDS011;62348;51.412;5.436;2023-05-19T00:42:02;12.32;;;7.30;;
73980;SDS011;62348;51.412;5.436;2023-05-19T00:44:29;11.75;;;6.80;;
73980;SDS011;62348;51.412;5.436;2023-05-19T00:46:55;13.48;;;6.93;;
73980;SDS011;62348;51.412;5.436;2023-05-19T00:49:21;12.48;;;6.32;;
73980;SDS011;62348;51.412;5.436;2023-05-19T00:51:47;10.10;;;6.80;;
73980;SDS011;62348;51.412;5.436;2023-05-19T00:54:13;17.10;;;7.20;;
73980;SDS011;62348;51.412;5.436;2023-05-19T00:56:39;12.70;;;7.15;;
73980;SDS011;62348;51.412;5.436;2023-05-19T00:59:05;11.13;;;7.15;;
73980;SDS011;62348;51.412;5.436;2023-05-19T01:01:30;9.05;;;6.70;;
73980;SDS011;62348;51.412;5.436;2023-05-19T01:03:56;13.32;;;7.15;;
73980;SDS011;62348;51.412;5.436;2023-05-19T01:06:23;12.70;;;6.90;;
73980;SDS011;62348;51.412;5.436;2023-05-19T01:08:49;10.30;;;6.68;;
73980;SDS011;62348;51.412;5.436;2023-05-19T01:11:15;12.90;;;6.72;;
73980;SDS011;62348;51.412;5.436;2023-05-19T01:13:41;10.27;;;7.20;;
73980;SDS011;62348;51.412;5.436;2023-05-19T01:18:53;10.48;;;7.40;;
73980;SDS011;62348;51.412;5.436;2023-05-19T01:21:48;10.13;;;7.00;;
73980;SDS011;62348;51.412;5.436;2023-05-19T01:24:27;11.15;;;8.02;;
73980;SDS011;62348;51.412;5.436;2023-05-19T01:29:35;13.57;;;8.13;;
73980;SDS011;62348;51.412;5.436;2023-05-19T01:32:18;13.18;;;7.45;;
73980;SDS011;62348;51.412;5.436;2023-05-19T01:34:45;14.10;;;8.90;;
73980;SDS011;62348;51.412;5.436;2023-05-19T01:37:13;13.35;;;8.90;;
73980;SDS011;62348;51.412;5.436;2023-05-19T01:39:40;13.20;;;8.73;;
73980;SDS011;62348;51.412;5.436;2023-05-19T01:42:08;14.52;;;8.60;;
73980;SDS011;62348;51.412;5.436;2023-05-19T01:44:34;15.13;;;8.63;;
73980;SDS011;62348;51.412;5.436;2023-05-19T01:47:00;16.45;;;9.52;;
73980;SDS011;62348;51.412;5.436;2023-05-19T01:49:26;16.67;;;10.35;;
73980;SDS011;62348;51.412;5.436;2023-05-19T01:51:52;19.27;;;9.68;;
73980;SDS011;62348;51.412;5.436;2023-05-19T01:54:17;13.48;;;8.90;;
73980;SDS011;62348;51.412;5.436;2023-05-19T01:59:26;15.23;;;8.65;;
73980;SDS011;62348;51.412;5.436;2023-05-19T02:02:25;12.10;;;8.77;;
73980;SDS011;62348;51.412;5.436;2023-05-19T02:05:03;16.67;;;8.77;;
73980;SDS011;62348;51.412;5.436;2023-05-19T02:07:41;12.68;;;8.90;;
73980;SDS011;62348;51.412;5.436;2023-05-19T02:10:18;14.65;;;8.57;;
73980;SDS011;62348;51.412;5.436;2023-05-19T02:12:52;10.73;;;8.57;;
73980;SDS011;62348;51.412;5.436;2023-05-19T02:15:27;14.55;;;9.07;;
73980;SDS011;62348;51.412;5.436;2023-05-19T02:17:59;16.27;;;9.10;;
73980;SDS011;62348;51.412;5.436;2023-05-19T02:20:28;15.25;;;8.45;;
73980;SDS011;62348;51.412;5.436;2023-05-19T02:22:54;14.15;;;9.25;;
73980;SDS011;62348;51.412;5.436;2023-05-19T02:25:20;16.80;;;8.85;;
73980;SDS011;62348;51.412;5.436;2023-05-19T02:27:47;14.45;;;9.70;;
73980;SDS011;62348;51.412;5.436;2023-05-19T02:30:13;13.13;;;9.35;;
73980;SDS011;62348;51.412;5.436;2023-05-19T02:32:38;14.07;;;8.98;;
73980;SDS011;62348;51.412;5.436;2023-05-19T02:35:04;15.40;;;9.13;;
73980;SDS011;62348;51.412;5.436;2023-05-19T02:37:30;17.58;;;9.02;;
73980;SDS011;62348;51.412;5.436;2023-05-19T02:39:56;13.75;;;8.98;;
73980;SDS011;62348;51.412;5.436;2023-05-19T02:42:22;14.93;;;9.75;;
73980;SDS011;62348;51.412;5.436;2023-05-19T02:44:47;10.93;;;8.75;;
73980;SDS011;62348;51.412;5.436;2023-05-19T02:47:13;16.85;;;9.52;;
73980;SDS011;62348;51.412;5.436;2023-05-19T02:49:39;15.43;;;9.88;;
73980;SDS011;62348;51.412;5.436;2023-05-19T02:52:05;20.67;;;10.43;;
73980;SDS011;62348;51.412;5.436;2023-05-19T02:54:31;13.10;;;9.32;;
73980;SDS011;62348;51.412;5.436;2023-05-19T02:56:57;16.33;;;9.63;;
73980;SDS011;62348;51.412;5.436;2023-05-19T02:59:23;15.60;;;9.15;;
73980;SDS011;62348;51.412;5.436;2023-05-19T03:01:49;18.00;;;10.93;;
73980;SDS011;62348;51.412;5.436;2023-05-19T03:04:15;14.73;;;10.40;;
73980;SDS011;62348;51.412;5.436;2023-05-19T03:06:44;19.83;;;10.05;;
73980;SDS011;62348;51.412;5.436;2023-05-19T03:09:10;13.13;;;10.23;;
73980;SDS011;62348;51.412;5.436;2023-05-19T03:11:37;18.27;;;9.27;;
73980;SDS011;62348;51.412;5.436;2023-05-19T03:14:03;14.02;;;10.20;;
73980;SDS011;62348;51.412;5.436;2023-05-19T03:16:28;22.92;;;10.32;;
73980;SDS011;62348;51.412;5.436;2023-05-19T03:18:53;13.95;;;10.00;;
73980;SDS011;62348;51.412;5.436;2023-05-19T03:21:19;15.82;;;10.18;;
73980;SDS011;62348;51.412;5.436;2023-05-19T03:23:45;14.52;;;10.43;;
73980;SDS011;62348;51.412;5.436;2023-05-19T03:26:11;18.33;;;9.70;;
73980;SDS011;62348;51.412;5.436;2023-05-19T03:28:36;18.15;;;10.25;;
73980;SDS011;62348;51.412;5.436;2023-05-19T03:31:02;14.63;;;10.23;;
73980;SDS011;62348;51.412;5.436;2023-05-19T03:33:27;15.50;;;9.95;;
73980;SDS011;62348;51.412;5.436;2023-05-19T03:35:55;16.92;;;10.20;;
73980;SDS011;62348;51.412;5.436;2023-05-19T03:38:21;16.63;;;9.68;;
73980;SDS011;62348;51.412;5.436;2023-05-19T03:40:46;17.00;;;10.55;;
73980;SDS011;62348;51.412;5.436;2023-05-19T03:43:12;15.57;;;11.02;;
73980;SDS011;62348;51.412;5.436;2023-05-19T03:45:37;14.40;;;9.68;;
73980;SDS011;62348;51.412;5.436;2023-05-19T03:48:03;15.60;;;9.90;;
73980;SDS011;62348;51.412;5.436;2023-05-19T03:50:28;15.90;;;10.35;;
73980;SDS011;62348;51.412;5.436;2023-05-19T03:52:55;18.15;;;10.80;;
73980;SDS011;62348;51.412;5.436;2023-05-19T03:55:21;13.07;;;9.70;;
73980;SDS011;62348;51.412;5.436;2023-05-19T03:57:46;15.77;;;9.95;;
73980;SDS011;62348;51.412;5.436;2023-05-19T04:00:12;15.32;;;9.95;;
73980;SDS011;62348;51.412;5.436;2023-05-19T04:02:38;15.32;;;9.32;;
73980;SDS011;62348;51.412;5.436;2023-05-19T04:05:05;17.08;;;10.13;;
73980;SDS011;62348;51.412;5.436;2023-05-19T04:07:31;13.38;;;8.52;;
73980;SDS011;62348;51.412;5.436;2023-05-19T04:09:56;18.70;;;8.93;;
73980;SDS011;62348;51.412;5.436;2023-05-19T04:12:22;14.50;;;9.23;;
73980;SDS011;62348;51.412;5.436;2023-05-19T04:14:47;17.13;;;8.95;;
73980;SDS011;62348;51.412;5.436;2023-05-19T04:17:13;16.05;;;8.43;;
73980;SDS011;62348;51.412;5.436;2023-05-19T04:19:38;13.88;;;9.00;;
73980;SDS011;62348;51.412;5.436;2023-05-19T04:22:04;13.23;;;9.25;;
73980;SDS011;62348;51.412;5.436;2023-05-19T04:24:30;15.55;;;9.02;;
73980;SDS011;62348;51.412;5.436;2023-05-19T04:26:55;19.23;;;9.80;;
73980;SDS011;62348;51.412;5.436;2023-05-19T04:29:21;14.80;;;9.30;;
73980;SDS011;62348;51.412;5.436;2023-05-19T04:31:47;13.00;;;8.75;;
73980;SDS011;62348;51.412;5.436;2023-05-19T04:34:13;18.60;;;9.70;;
73980;SDS011;62348;51.412;5.436;2023-05-19T04:36:38;16.45;;;9.73;;
73980;SDS011;62348;51.412;5.436;2023-05-19T04:39:04;12.43;;;8.88;;
73980;SDS011;62348;51.412;5.436;2023-05-19T04:41:33;16.40;;;9.95;;
73980;SDS011;62348;51.412;5.436;2023-05-19T04:43:59;13.85;;;9.93;;
73980;SDS011;62348;51.412;5.436;2023-05-19T04:46:24;15.50;;;8.57;;
73980;SDS011;62348;51.412;5.436;2023-05-19T04:48:50;15.60;;;9.38;;
73980;SDS011;62348;51.412;5.436;2023-05-19T04:51:17;15.40;;;9.10;;
73980;SDS011;62348;51.412;5.436;2023-05-19T04:53:45;17.13;;;9.23;;
73980;SDS011;62348;51.412;5.436;2023-05-19T04:56:10;15.18;;;9.55;;
73980;SDS011;62348;51.412;5.436;2023-05-19T04:58:39;16.60;;;8.82;;
73980;SDS011;62348;51.412;5.436;2023-05-19T05:01:08;15.95;;;9.50;;
73980;SDS011;62348;51.412;5.436;2023-05-19T05:03:34;19.50;;;8.65;;
73980;SDS011;62348;51.412;5.436;2023-05-19T05:05:59;18.10;;;9.35;;
73980;SDS011;62348;51.412;5.436;2023-05-19T05:08:25;13.40;;;8.57;;
73980;SDS011;62348;51.412;5.436;2023-05-19T05:10:51;13.93;;;9.88;;
73980;SDS011;62348;51.412;5.436;2023-05-19T05:13:17;13.25;;;8.77;;
73980;SDS011;62348;51.412;5.436;2023-05-19T05:15:46;14.98;;;9.48;;
73980;SDS011;62348;51.412;5.436;2023-05-19T05:18:12;13.52;;;8.77;;
73980;SDS011;62348;51.412;5.436;2023-05-19T05:20:39;12.93;;;9.63;;
73980;SDS011;62348;51.412;5.436;2023-05-19T05:23:08;13.85;;;9.35;;
73980;SDS011;62348;51.412;5.436;2023-05-19T05:25:35;17.10;;;9.45;;
73980;SDS011;62348;51.412;5.436;2023-05-19T05:28:00;15.30;;;9.63;;
73980;SDS011;62348;51.412;5.436;2023-05-19T05:30:30;14.85;;;9.75;;
73980;SDS011;62348;51.412;5.436;2023-05-19T05:32:55;17.48;;;9.23;;
73980;SDS011;62348;51.412;5.436;2023-05-19T05:35:21;16.40;;;9.40;;
73980;SDS011;62348;51.412;5.436;2023-05-19T05:37:48;14.55;;;9.27;;
73980;SDS011;62348;51.412;5.436;2023-05-19T05:40:13;16.10;;;10.30;;
73980;SDS011;62348;51.412;5.436;2023-05-19T05:42:39;15.48;;;9.43;;
73980;SDS011;62348;51.412;5.436;2023-05-19T05:45:04;14.88;;;8.88;;
73980;SDS011;62348;51.412;5.436;2023-05-19T05:47:30;16.50;;;9.55;;
73980;SDS011;62348;51.412;5.436;2023-05-19T05:49:56;16.90;;;9.75;;
73980;SDS011;62348;51.412;5.436;2023-05-19T05:52:22;11.52;;;9.00;;
73980;SDS011;62348;51.412;5.436;2023-05-19T05:54:54;14.20;;;9.73;;
73980;SDS011;62348;51.412;5.436;2023-05-19T05:57:20;13.68;;;9.23;;
73980;SDS011;62348;51.412;5.436;2023-05-19T05:59:45;13.25;;;8.77;;
73980;SDS011;62348;51.412;5.436;2023-05-19T06:02:11;14.07;;;8.77;;
73980;SDS011;62348;51.412;5.436;2023-05-19T06:04:36;13.40;;;8.48;;
73980;SDS011;62348;51.412;5.436;2023-05-19T06:07:02;17.48;;;10.52;;
73980;SDS011;62348;51.412;5.436;2023-05-19T06:09:27;13.40;;;8.63;;
73980;SDS011;62348;51.412;5.436;2023-05-19T06:11:54;13.38;;;8.50;;
73980;SDS011;62348;51.412;5.436;2023-05-19T06:14:19;15.23;;;9.00;;
73980;SDS011;62348;51.412;5.436;2023-05-19T06:16:45;11.38;;;8.30;;
73980;SDS011;62348;51.412;5.436;2023-05-19T06:19:12;15.68;;;8.50;;
73980;SDS011;62348;51.412;5.436;2023-05-19T06:21:37;14.55;;;7.85;;
73980;SDS011;62348;51.412;5.436;2023-05-19T06:24:03;13.98;;;7.68;;
73980;SDS011;62348;51.412;5.436;2023-05-19T06:26:28;13.48;;;7.30;;
73980;SDS011;62348;51.412;5.436;2023-05-19T06:28:54;10.55;;;7.30;;
73980;SDS011;62348;51.412;5.436;2023-05-19T06:31:19;13.85;;;7.72;;
73980;SDS011;62348;51.412;5.436;2023-05-19T06:33:46;11.70;;;7.40;;
73980;SDS011;62348;51.412;5.436;2023-05-19T06:36:11;11.60;;;7.35;;
73980;SDS011;62348;51.412;5.436;2023-05-19T06:38:37;9.82;;;6.75;;
73980;SDS011;62348;51.412;5.436;2023-05-19T06:41:03;11.75;;;6.65;;
73980;SDS011;62348;51.412;5.436;2023-05-19T06:43:29;10.38;;;6.25;;
73980;SDS011;62348;51.412;5.436;2023-05-19T06:45:54;11.13;;;6.75;;
73980;SDS011;62348;51.412;5.436;2023-05-19T06:48:20;11.02;;;7.15;;
73980;SDS011;62348;51.412;5.436;2023-05-19T06:50:45;11.27;;;6.50;;
73980;SDS011;62348;51.412;5.436;2023-05-19T06:53:10;14.25;;;6.53;;
73980;SDS011;62348;51.412;5.436;2023-05-19T06:55:36;10.98;;;6.82;;
73980;SDS011;62348;51.412;5.436;2023-05-19T06:58:01;11.65;;;6.43;;
73980;SDS011;62348;51.412;5.436;2023-05-19T07:00:26;12.05;;;6.28;;
73980;SDS011;62348;51.412;5.436;2023-05-19T07:02:52;12.73;;;6.60;;
73980;SDS011;62348;51.412;5.436;2023-05-19T07:05:17;12.35;;;6.70;;
73980;SDS011;62348;51.412;5.436;2023-05-19T07:07:43;10.07;;;6.50;;
73980;SDS011;62348;51.412;5.436;2023-05-19T07:10:08;10.90;;;5.95;;
73980;SDS011;62348;51.412;5.436;2023-05-19T07:12:34;14.63;;;6.88;;
73980;SDS011;62348;51.412;5.436;2023-05-19T07:14:59;12.93;;;7.35;;
73980;SDS011;62348;51.412;5.436;2023-05-19T07:17:25;10.15;;;6.57;;
73980;SDS011;62348;51.412;5.436;2023-05-19T07:19:50;12.88;;;6.65;;
73980;SDS011;62348;51.412;5.436;2023-05-19T07:22:15;9.20;;;5.70;;
73980;SDS011;62348;51.412;5.436;2023-05-19T07:24:41;9.48;;;5.68;;
73980;SDS011;62348;51.412;5.436;2023-05-19T07:27:06;11.73;;;6.35;;
73980;SDS011;62348;51.412;5.436;2023-05-19T07:29:32;11.90;;;6.15;;
73980;SDS011;62348;51.412;5.436;2023-05-19T07:31:57;10.93;;;5.93;;
73980;SDS011;62348;51.412;5.436;2023-05-19T07:34:23;8.98;;;5.32;;
73980;SDS011;62348;51.412;5.436;2023-05-19T07:36:49;10.82;;;5.57;;
73980;SDS011;62348;51.412;5.436;2023-05-19T07:39:15;9.65;;;5.90;;
73980;SDS011;62348;51.412;5.436;2023-05-19T07:41:41;10.13;;;5.38;;
73980;SDS011;62348;51.412;5.436;2023-05-19T07:44:06;10.52;;;5.22;;
73980;SDS011;62348;51.412;5.436;2023-05-19T07:46:32;11.57;;;5.63;;
73980;SDS011;62348;51.412;5.436;2023-05-19T07:48:58;7.88;;;5.40;;
73980;SDS011;62348;51.412;5.436;2023-05-19T07:51:23;10.35;;;5.68;;
73980;SDS011;62348;51.412;5.436;2023-05-19T07:53:49;11.50;;;6.18;;
73980;SDS011;62348;51.412;5.436;2023-05-19T07:56:15;14.18;;;5.55;;
73980;SDS011;62348;51.412;5.436;2023-05-19T07:58:40;11.70;;;6.72;;
73980;SDS011;62348;51.412;5.436;2023-05-19T08:01:06;10.55;;;5.53;;
73980;SDS011;62348;51.412;5.436;2023-05-19T08:03:31;7.68;;;5.05;;
73980;SDS011;62348;51.412;5.436;2023-05-19T08:05:57;12.25;;;5.07;;
73980;SDS011;62348;51.412;5.436;2023-05-19T08:08:23;8.80;;;4.63;;
73980;SDS011;62348;51.412;5.436;2023-05-19T08:10:48;10.68;;;5.22;;
73980;SDS011;62348;51.412;5.436;2023-05-19T08:13:13;14.18;;;4.80;;
73980;SDS011;62348;51.412;5.436;2023-05-19T08:15:39;9.80;;;4.65;;
73980;SDS011;62348;51.412;5.436;2023-05-19T08:18:05;6.65;;;3.92;;
73980;SDS011;62348;51.412;5.436;2023-05-19T08:20:30;9.60;;;4.50;;
73980;SDS011;62348;51.412;5.436;2023-05-19T08:22:56;8.68;;;3.75;;
73980;SDS011;62348;51.412;5.436;2023-05-19T08:25:22;9.73;;;4.55;;
73980;SDS011;62348;51.412;5.436;2023-05-19T08:27:47;8.77;;;4.13;;
73980;SDS011;62348;51.412;5.436;2023-05-19T08:30:12;6.78;;;4.45;;
73980;SDS011;62348;51.412;5.436;2023-05-19T08:32:38;10.55;;;5.40;;
73980;SDS011;62348;51.412;5.436;2023-05-19T08:35:03;9.32;;;4.18;;
73980;SDS011;62348;51.412;5.436;2023-05-19T08:37:29;7.15;;;4.18;;
73980;SDS011;62348;51.412;5.436;2023-05-19T08:39:54;11.25;;;4.30;;
73980;SDS011;62348;51.412;5.436;2023-05-19T08:42:21;14.18;;;5.22;;
73980;SDS011;62348;51.412;5.436;2023-05-19T08:44:46;10.00;;;4.55;;
73980;SDS011;62348;51.412;5.436;2023-05-19T08:47:12;10.55;;;4.70;;
73980;SDS011;62348;51.412;5.436;2023-05-19T08:49:42;8.65;;;4.43;;
73980;SDS011;62348;51.412;5.436;2023-05-19T08:54:59;10.43;;;4.15;;
73980;SDS011;62348;51.412;5.436;2023-05-19T08:57:28;8.85;;;3.15;;
73980;SDS011;62348;51.412;5.436;2023-05-19T08:59:54;11.40;;;4.00;;
73980;SDS011;62348;51.412;5.436;2023-05-19T09:02:21;7.88;;;3.72;;
73980;SDS011;62348;51.412;5.436;2023-05-19T09:04:47;8.82;;;4.13;;
73980;SDS011;62348;51.412;5.436;2023-05-19T09:07:13;11.27;;;3.63;;
73980;SDS011;62348;51.412;5.436;2023-05-19T09:09:40;6.28;;;2.90;;
73980;SDS011;62348;51.412;5.436;2023-05-19T09:12:08;7.28;;;3.22;;
73980;SDS011;62348;51.412;5.436;2023-05-19T09:14:35;7.03;;;2.20;;
73980;SDS011;62348;51.412;5.436;2023-05-19T09:17:01;8.02;;;2.28;;
73980;SDS011;62348;51.412;5.436;2023-05-19T09:19:27;4.47;;;1.88;;
73980;SDS011;62348;51.412;5.436;2023-05-19T09:22:00;3.97;;;1.70;;
73980;SDS011;62348;51.412;5.436;2023-05-19T09:24:28;8.80;;;2.22;;
73980;SDS011;62348;51.412;5.436;2023-05-19T09:26:54;7.45;;;2.22;;
73980;SDS011;62348;51.412;5.436;2023-05-19T09:29:23;4.95;;;2.40;;
73980;SDS011;62348;51.412;5.436;2023-05-19T09:31:49;7.45;;;2.80;;
73980;SDS011;62348;51.412;5.436;2023-05-19T09:34:19;6.03;;;2.70;;
73980;SDS011;62348;51.412;5.436;2023-05-19T09:36:47;6.25;;;2.17;;
73980;SDS011;62348;51.412;5.436;2023-05-19T09:39:17;8.23;;;2.85;;
73980;SDS011;62348;51.412;5.436;2023-05-19T09:41:43;7.18;;;2.40;;
73980;SDS011;62348;51.412;5.436;2023-05-19T09:44:20;6.72;;;2.55;;
73980;SDS011;62348;51.412;5.436;2023-05-19T09:46:57;5.25;;;2.30;;
73980;SDS011;62348;51.412;5.436;2023-05-19T09:49:23;6.80;;;2.35;;
73980;SDS011;62348;51.412;5.436;2023-05-19T09:51:53;7.20;;;2.08;;
73980;SDS011;62348;51.412;5.436;2023-05-19T09:54:21;9.15;;;2.25;;
73980;SDS011;62348;51.412;5.436;2023-05-19T09:56:51;8.43;;;1.95;;
73980;SDS011;62348;51.412;5.436;2023-05-19T09:59:24;8.35;;;2.28;;
73980;SDS011;62348;51.412;5.436;2023-05-19T10:01:53;7.05;;;2.13;;
73980;SDS011;62348;51.412;5.436;2023-05-19T10:04:21;7.47;;;2.15;;
73980;SDS011;62348;51.412;5.436;2023-05-19T10:06:50;9.93;;;1.80;;
73980;SDS011;62348;51.412;5.436;2023-05-19T10:09:23;6.53;;;1.92;;
73980;SDS011;62348;51.412;5.436;2023-05-19T10:11:53;8.45;;;2.00;;
73980;SDS011;62348;51.412;5.436;2023-05-19T10:14:27;5.55;;;1.88;;
73980;SDS011;62348;51.412;5.436;2023-05-19T10:16:54;6.85;;;2.38;;
73980;SDS011;62348;51.412;5.436;2023-05-19T10:19:21;5.93;;;2.10;;
73980;SDS011;62348;51.412;5.436;2023-05-19T10:21:48;3.63;;;1.92;;
73980;SDS011;62348;51.412;5.436;2023-05-19T10:24:15;9.23;;;2.65;;
73980;SDS011;62348;51.412;5.436;2023-05-19T10:26:52;6.57;;;2.25;;
73980;SDS011;62348;51.412;5.436;2023-05-19T10:29:22;9.00;;;2.22;;
73980;SDS011;62348;51.412;5.436;2023-05-19T10:31:52;12.43;;;2.50;;
73980;SDS011;62348;51.412;5.436;2023-05-19T10:34:28;7.63;;;2.10;;
73980;SDS011;62348;51.412;5.436;2023-05-19T10:37:33;4.57;;;2.08;;
73980;SDS011;62348;51.412;5.436;2023-05-19T10:40:29;10.32;;;2.20;;
73980;SDS011;62348;51.412;5.436;2023-05-19T10:43:02;7.40;;;2.35;;
73980;SDS011;62348;51.412;5.436;2023-05-19T10:45:43;3.75;;;1.80;;
73980;SDS011;62348;51.412;5.436;2023-05-19T10:48:14;6.20;;;2.05;;
73980;SDS011;62348;51.412;5.436;2023-05-19T10:50:44;7.68;;;2.88;;
73980;SDS011;62348;51.412;5.436;2023-05-19T10:53:16;8.13;;;2.63;;
73980;SDS011;62348;51.412;5.436;2023-05-19T10:55:51;9.93;;;2.67;;
73980;SDS011;62348;51.412;5.436;2023-05-19T11:01:13;7.65;;;2.78;;
73980;SDS011;62348;51.412;5.436;2023-05-19T11:03:51;5.47;;;2.15;;
73980;SDS011;62348;51.412;5.436;2023-05-19T11:08:52;7.10;;;2.35;;
73980;SDS011;62348;51.412;5.436;2023-05-19T11:11:25;5.78;;;2.13;;
73980;SDS011;62348;51.412;5.436;2023-05-19T11:13:52;6.60;;;2.00;;
73980;SDS011;62348;51.412;5.436;2023-05-19T11:16:28;5.13;;;1.88;;
73980;SDS011;62348;51.412;5.436;2023-05-19T11:18:57;6.05;;;2.88;;
73980;SDS011;62348;51.412;5.436;2023-05-19T11:21:23;4.70;;;2.03;;
73980;SDS011;62348;51.412;5.436;2023-05-19T11:24:37;7.72;;;2.38;;
73980;SDS011;62348;51.412;5.436;2023-05-19T11:30:08;4.50;;;1.73;;
73980;SDS011;62348;51.412;5.436;2023-05-19T11:32:42;8.68;;;2.72;;
73980;SDS011;62348;51.412;5.436;2023-05-19T11:35:11;3.67;;;2.03;;
73980;SDS011;62348;51.412;5.436;2023-05-19T11:37:36;4.90;;;2.22;;
73980;SDS011;62348;51.412;5.436;2023-05-19T11:40:04;6.30;;;2.53;;
73980;SDS011;62348;51.412;5.436;2023-05-19T11:42:33;5.85;;;2.17;;
73980;SDS011;62348;51.412;5.436;2023-05-19T11:45:00;6.40;;;1.85;;
73980;SDS011;62348;51.412;5.436;2023-05-19T11:47:26;6.57;;;2.30;;
73980;SDS011;62348;51.412;5.436;2023-05-19T11:49:52;14.18;;;2.70;;
73980;SDS011;62348;51.412;5.436;2023-05-19T11:52:21;7.13;;;2.10;;
73980;SDS011;62348;51.412;5.436;2023-05-19T11:54:47;7.25;;;2.33;;
73980;SDS011;62348;51.412;5.436;2023-05-19T11:57:13;4.32;;;1.95;;
73980;SDS011;62348;51.412;5.436;2023-05-19T11:59:38;5.88;;;2.40;;
73980;SDS011;62348;51.412;5.436;2023-05-19T12:02:20;5.57;;;2.30;;
73980;SDS011;62348;51.412;5.436;2023-05-19T12:04:49;5.78;;;2.45;;
73980;SDS011;62348;51.412;5.436;2023-05-19T12:07:15;5.05;;;2.78;;
73980;SDS011;62348;51.412;5.436;2023-05-19T12:09:45;6.80;;;3.35;;
73980;SDS011;62348;51.412;5.436;2023-05-19T12:12:14;4.70;;;2.45;;
73980;SDS011;62348;51.412;5.436;2023-05-19T12:14:41;8.88;;;2.30;;
73980;SDS011;62348;51.412;5.436;2023-05-19T12:17:13;8.48;;;2.40;;
73980;SDS011;62348;51.412;5.436;2023-05-19T12:19:44;5.78;;;2.40;;
73980;SDS011;62348;51.412;5.436;2023-05-19T12:22:11;9.02;;;2.65;;
73980;SDS011;62348;51.412;5.436;2023-05-19T12:24:36;9.63;;;2.70;;
73980;SDS011;62348;51.412;5.436;2023-05-19T12:29:36;5.40;;;2.20;;
73980;SDS011;62348;51.412;5.436;2023-05-19T12:32:02;8.85;;;2.53;;
73980;SDS011;62348;51.412;5.436;2023-05-19T12:34:27;6.63;;;1.88;;
73980;SDS011;62348;51.412;5.436;2023-05-19T12:36:54;5.80;;;2.05;;
73980;SDS011;62348;51.412;5.436;2023-05-19T12:39:19;4.78;;;2.10;;
73980;SDS011;62348;51.412;5.436;2023-05-19T12:41:45;6.40;;;2.60;;
73980;SDS011;62348;51.412;5.436;2023-05-19T12:44:13;6.10;;;1.92;;
73980;SDS011;62348;51.412;5.436;2023-05-19T12:46:40;7.53;;;2.42;;
73980;SDS011;62348;51.412;5.436;2023-05-19T12:49:05;7.95;;;3.28;;
73980;SDS011;62348;51.412;5.436;2023-05-19T12:51:30;4.85;;;1.98;;
73980;SDS011;62348;51.412;5.436;2023-05-19T12:53:56;3.65;;;1.80;;
73980;SDS011;62348;51.412;5.436;2023-05-19T12:56:24;5.47;;;2.15;;
73980;SDS011;62348;51.412;5.436;2023-05-19T12:58:52;7.00;;;2.50;;
73980;SDS011;62348;51.412;5.436;2023-05-19T13:01:18;5.55;;;2.60;;
73980;SDS011;62348;51.412;5.436;2023-05-19T13:03:44;5.22;;;2.33;;
73980;SDS011;62348;51.412;5.436;2023-05-19T13:06:10;4.28;;;2.33;;
73980;SDS011;62348;51.412;5.436;2023-05-19T13:08:36;8.13;;;2.13;;
73980;SDS011;62348;51.412;5.436;2023-05-19T13:11:03;8.07;;;2.42;;
73980;SDS011;62348;51.412;5.436;2023-05-19T13:13:29;6.28;;;2.63;;
73980;SDS011;62348;51.412;5.436;2023-05-19T13:15:54;6.65;;;2.10;;
73980;SDS011;62348;51.412;5.436;2023-05-19T13:18:20;5.15;;;2.80;;
73980;SDS011;62348;51.412;5.436;2023-05-19T13:20:46;3.72;;;2.13;;
73980;SDS011;62348;51.412;5.436;2023-05-19T13:23:14;4.85;;;1.98;;
73980;SDS011;62348;51.412;5.436;2023-05-19T13:25:40;5.88;;;2.25;;
73980;SDS011;62348;51.412;5.436;2023-05-19T13:28:06;5.22;;;2.15;;
73980;SDS011;62348;51.412;5.436;2023-05-19T13:30:35;6.05;;;2.47;;
73980;SDS011;62348;51.412;5.436;2023-05-19T13:33:05;5.03;;;2.08;;
73980;SDS011;62348;51.412;5.436;2023-05-19T13:35:30;5.78;;;2.42;;
73980;SDS011;62348;51.412;5.436;2023-05-19T13:38:04;6.90;;;1.92;;
73980;SDS011;62348;51.412;5.436;2023-05-19T13:40:30;6.35;;;2.00;;
73980;SDS011;62348;51.412;5.436;2023-05-19T13:42:59;6.93;;;2.67;;
73980;SDS011;62348;51.412;5.436;2023-05-19T13:45:26;5.38;;;2.03;;
73980;SDS011;62348;51.412;5.436;2023-05-19T13:47:51;5.45;;;2.63;;
73980;SDS011;62348;51.412;5.436;2023-05-19T13:50:16;6.68;;;2.22;;
73980;SDS011;62348;51.412;5.436;2023-05-19T13:52:42;8.52;;;2.10;;
73980;SDS011;62348;51.412;5.436;2023-05-19T13:55:07;5.55;;;2.00;;
73980;SDS011;62348;51.412;5.436;2023-05-19T13:57:33;5.63;;;2.35;;
73980;SDS011;62348;51.412;5.436;2023-05-19T13:59:59;8.02;;;2.90;;
73980;SDS011;62348;51.412;5.436;2023-05-19T14:02:24;5.15;;;2.20;;
73980;SDS011;62348;51.412;5.436;2023-05-19T14:04:50;6.85;;;2.40;;
73980;SDS011;62348;51.412;5.436;2023-05-19T14:07:15;5.15;;;2.33;;
73980;SDS011;62348;51.412;5.436;2023-05-19T14:09:41;4.45;;;2.22;;
73980;SDS011;62348;51.412;5.436;2023-05-19T14:12:06;6.20;;;2.25;;
73980;SDS011;62348;51.412;5.436;2023-05-19T14:14:34;5.70;;;2.30;;
73980;SDS011;62348;51.412;5.436;2023-05-19T14:16:59;5.78;;;2.15;;
73980;SDS011;62348;51.412;5.436;2023-05-19T14:19:25;6.32;;;2.17;;
73980;SDS011;62348;51.412;5.436;2023-05-19T14:21:54;5.07;;;2.30;;
73980;SDS011;62348;51.412;5.436;2023-05-19T14:24:20;8.10;;;2.20;;
73980;SDS011;62348;51.412;5.436;2023-05-19T14:26:45;5.70;;;2.53;;
73980;SDS011;62348;51.412;5.436;2023-05-19T14:29:11;3.70;;;1.90;;
73980;SDS011;62348;51.412;5.436;2023-05-19T14:31:36;4.82;;;2.33;;
73980;SDS011;62348;51.412;5.436;2023-05-19T14:34:02;5.40;;;2.42;;
73980;SDS011;62348;51.412;5.436;2023-05-19T14:36:27;5.07;;;2.53;;
73980;SDS011;62348;51.412;5.436;2023-05-19T14:38:52;4.93;;;2.33;;
73980;SDS011;62348;51.412;5.436;2023-05-19T14:41:18;11.10;;;2.30;;
73980;SDS011;62348;51.412;5.436;2023-05-19T14:43:43;7.50;;;2.53;;
73980;SDS011;62348;51.412;5.436;2023-05-19T14:46:08;5.85;;;2.10;;
73980;SDS011;62348;51.412;5.436;2023-05-19T14:48:34;6.63;;;2.03;;
73980;SDS011;62348;51.412;5.436;2023-05-19T14:50:59;6.07;;;1.95;;
73980;SDS011;62348;51.412;5.436;2023-05-19T14:53:25;5.13;;;2.38;;
73980;SDS011;62348;51.412;5.436;2023-05-19T14:55:50;4.60;;;2.30;;
73980;SDS011;62348;51.412;5.436;2023-05-19T14:58:16;7.85;;;3.35;;
73980;SDS011;62348;51.412;5.436;2023-05-19T15:00:41;6.18;;;2.15;;
73980;SDS011;62348;51.412;5.436;2023-05-19T15:03:07;7.32;;;2.70;;